Time;durP1;ratioP1;P1;durP2;ratioP2;P2;SDS_P1;SDS_P2;PMS_P1;PMS_P2;Temp;Humidity;BMP_temperature;BMP_pressure;BME280_temperature;BME280_humidity;BME280_pressure;Samples;Min_cycle;Max_cycle;Signal;HPM_P1;HPM_P2
2023/06/01 00:02:20;;;;;;;3.43;2.50;;;;;;;15.42;100.00;100373.31;5012065;28;20240;-75
2023/06/01 00:04:48;;;;;;;4.40;2.77;;;;;;;15.43;100.00;100374.13;5013755;28;20190;-74
2023/06/01 00:07:13;;;;;;;5.77;2.53;;;;;;;15.30;100.00;100375.00;5013098;28;20258;-74
2023/06/01 00:09:39;;;;;;;3.83;2.47;;;;;;;15.28;100.00;100373.44;5013520;28;20198;-75
2023/06/01 00:12:05;;;;;;;5.50;2.47;;;;;;;15.25;100.00;100369.31;5017942;28;20237;-74
2023/06/01 00:14:30;;;;;;;4.33;2.77;;;;;;;15.25;100.00;100378.84;5012192;28;20171;-75
2023/06/01 00:16:56;;;;;;;6.27;2.90;;;;;;;15.25;100.00;100369.31;5013085;28;20722;-74
2023/06/01 00:19:22;;;;;;;5.20;2.83;;;;;;;15.21;100.00;100370.47;5013363;28;20213;-74
2023/06/01 00:21:47;;;;;;;4.60;2.47;;;;;;;15.12;100.00;100371.94;5004941;28;20229;-74
2023/06/01 00:24:12;;;;;;;4.80;2.47;;;;;;;14.99;100.00;100364.16;5014974;28;20186;-74
2023/06/01 00:26:38;;;;;;;5.50;2.97;;;;;;;14.89;100.00;100365.75;5012675;28;20187;-75
2023/06/01 00:29:03;;;;;;;4.30;3.17;;;;;;;14.79;100.00;100375.06;5007296;28;20657;-75
2023/06/01 00:31:28;;;;;;;3.77;2.70;;;;;;;14.78;100.00;100368.25;5007461;28;20225;-74
2023/06/01 00:33:54;;;;;;;3.97;2.33;;;;;;;14.75;100.00;100379.63;5017078;28;20277;-75
2023/06/01 00:36:20;;;;;;;5.50;2.90;;;;;;;14.69;100.00;100365.34;5012639;28;20194;-74
2023/06/01 00:38:45;;;;;;;3.47;2.40;;;;;;;14.58;100.00;100372.97;5012883;28;20191;-74
2023/06/01 00:41:11;;;;;;;6.67;3.10;;;;;;;14.45;100.00;100366.94;5004823;28;20299;-75
2023/06/01 00:43:36;;;;;;;5.20;2.20;;;;;;;14.46;100.00;100368.59;5008626;28;20190;-74
2023/06/01 00:46:02;;;;;;;7.60;3.10;;;;;;;14.47;100.00;100365.91;5012373;28;20252;-74
2023/06/01 00:48:27;;;;;;;2.83;2.40;;;;;;;14.49;100.00;100360.66;5011831;28;20183;-74
2023/06/01 00:50:53;;;;;;;6.83;3.33;;;;;;;14.41;100.00;100361.13;5020885;28;20237;-75
2023/06/01 00:53:19;;;;;;;4.20;3.07;;;;;;;14.43;100.00;100361.06;5021205;28;20200;-73
2023/06/01 00:55:46;;;;;;;3.50;2.50;;;;;;;14.39;100.00;100360.44;5011192;28;20676;-73
2023/06/01 00:58:12;;;;;;;5.17;2.80;;;;;;;14.37;100.00;100359.69;5011088;28;20197;-73
2023/06/01 01:00:39;;;;;;;4.73;2.57;;;;;;;14.42;100.00;100359.41;5004400;28;20268;-73
2023/06/01 01:03:07;;;;;;;4.30;2.73;;;;;;;14.46;100.00;100364.28;4998639;28;20210;-73
2023/06/01 01:05:34;;;;;;;3.20;2.30;;;;;;;14.39;100.00;100357.00;5011987;28;20199;-74
2023/06/01 01:08:21;;;;;;;5.27;2.90;;;;;;;14.31;100.00;100357.50;5010889;28;20175;-75
2023/06/01 01:10:49;;;;;;;5.63;2.70;;;;;;;14.25;100.00;100363.09;5007758;28;20426;-74
2023/06/01 01:13:17;;;;;;;7.73;2.60;;;;;;;14.18;100.00;100357.50;5021627;28;20329;-74
2023/06/01 01:15:51;;;;;;;10.67;2.80;;;;;;;14.14;100.00;100364.63;5012041;28;20297;-74
2023/06/01 01:18:24;;;;;;;4.37;2.50;;;;;;;14.07;100.00;100363.38;5012003;28;20198;-73
2023/06/01 01:21:00;;;;;;;4.37;2.77;;;;;;;14.07;100.00;100357.38;5003989;28;20703;-74
2023/06/01 01:23:32;;;;;;;4.03;2.47;;;;;;;14.15;100.00;100355.94;5010731;28;20284;-74
2023/06/01 01:26:33;;;;;;;3.00;2.50;;;;;;;14.13;100.00;100355.22;5010429;28;20179;-74
2023/06/01 01:29:08;;;;;;;3.63;2.73;;;;;;;14.02;100.00;100353.31;4995159;28;20186;-75
2023/06/01 01:31:34;;;;;;;4.60;2.50;;;;;;;13.97;100.00;100360.56;5010006;28;20229;-74
2023/06/01 01:34:02;;;;;;;3.63;2.43;;;;;;;13.90;100.00;100359.28;5015695;28;20701;-74
2023/06/01 01:36:27;;;;;;;5.60;2.80;;;;;;;13.81;100.00;100358.13;5010202;28;20704;-74
2023/06/01 01:38:53;;;;;;;2.80;2.13;;;;;;;13.76;100.00;100356.78;5012207;28;20190;-74
2023/06/01 01:41:19;;;;;;;3.93;2.87;;;;;;;13.73;100.00;100350.03;5011500;28;20229;-73
2023/06/01 01:43:45;;;;;;;7.47;2.70;;;;;;;13.75;100.00;100349.94;5010944;28;20976;-74
2023/06/01 01:46:10;;;;;;;3.60;2.80;;;;;;;13.74;100.00;100343.91;5011186;28;20221;-74
2023/06/01 01:48:43;;;;;;;5.03;2.80;;;;;;;13.69;100.00;100345.97;4998400;28;20194;-73
2023/06/01 01:51:15;;;;;;;4.50;3.10;;;;;;;13.63;100.00;100348.94;5001930;28;20588;-74
2023/06/01 01:53:42;;;;;;;6.67;2.43;;;;;;;13.73;100.00;100344.88;5010631;28;20186;-74
2023/06/01 01:56:08;;;;;;;5.83;2.77;;;;;;;13.78;100.00;100344.56;5010250;28;20181;-74
2023/06/01 01:58:34;;;;;;;3.73;2.57;;;;;;;13.72;100.00;100338.03;5010505;28;20680;-75
2023/06/01 02:01:02;;;;;;;4.83;3.03;;;;;;;13.61;100.00;100341.31;5009326;28;20229;-74
2023/06/01 02:03:28;;;;;;;8.07;2.60;;;;;;;13.53;100.00;100338.38;5010432;28;20193;-74
2023/06/01 02:05:53;;;;;;;5.47;2.60;;;;;;;13.49;100.00;100337.72;5011224;28;20190;-74
2023/06/01 02:08:18;;;;;;;6.07;2.90;;;;;;;13.45;100.00;100343.22;5011715;28;20285;-74
2023/06/01 02:10:44;;;;;;;6.23;2.80;;;;;;;13.40;100.00;100333.16;5006876;28;20349;-73
2023/06/01 02:13:09;;;;;;;5.50;2.70;;;;;;;13.38;100.00;100329.81;5021208;28;20598;-74
2023/06/01 02:15:35;;;;;;;5.63;2.80;;;;;;;13.31;100.00;100336.25;5011477;28;20222;-73
2023/06/01 02:18:00;;;;;;;3.57;2.40;;;;;;;13.31;100.00;100334.53;5009994;28;20553;-73
2023/06/01 02:20:25;;;;;;;4.57;2.80;;;;;;;13.31;100.00;100331.94;5004529;28;20230;-74
2023/06/01 02:22:50;;;;;;;4.93;2.63;;;;;;;13.27;100.00;100333.03;5023626;28;20318;-73
2023/06/01 02:25:19;;;;;;;9.10;3.00;;;;;;;13.30;100.00;100330.28;5011317;28;20194;-73
2023/06/01 02:27:44;;;;;;;6.43;2.83;;;;;;;13.20;100.00;100335.19;5010313;28;20240;-74
2023/06/01 02:30:10;;;;;;;6.60;3.03;;;;;;;13.09;100.00;100327.28;4989135;28;20187;-73
2023/06/01 02:32:37;;;;;;;4.50;2.50;;;;;;;13.12;100.00;100328.84;5010244;28;20183;-74
2023/06/01 02:35:03;;;;;;;5.23;3.10;;;;;;;13.08;100.00;100329.03;5026123;28;20186;-73
2023/06/01 02:37:28;;;;;;;4.23;2.27;;;;;;;13.15;100.00;100324.31;5010073;28;20281;-74
2023/06/01 02:39:53;;;;;;;3.83;2.87;;;;;;;13.05;100.00;100324.03;5010956;28;20198;-74
2023/06/01 02:42:19;;;;;;;4.50;2.97;;;;;;;13.04;100.00;100330.13;5016458;28;20269;-75
2023/06/01 02:44:44;;;;;;;6.53;2.80;;;;;;;13.13;100.00;100327.91;5011349;28;20183;-74
2023/06/01 02:47:09;;;;;;;6.50;2.90;;;;;;;13.24;100.00;100318.56;5011133;28;20245;-74
2023/06/01 02:49:35;;;;;;;4.33;2.57;;;;;;;13.18;100.00;100320.72;5011271;28;20175;-74
2023/06/01 02:52:00;;;;;;;5.47;2.73;;;;;;;13.04;100.00;100314.63;5016348;28;20674;-74
2023/06/01 02:54:25;;;;;;;9.00;2.90;;;;;;;13.03;100.00;100317.31;5011300;28;20187;-75
2023/06/01 02:56:51;;;;;;;4.73;2.87;;;;;;;13.02;100.00;100320.81;5010833;28;20277;-74
2023/06/01 02:59:16;;;;;;;7.70;3.63;;;;;;;12.95;100.00;100315.22;5011227;28;20198;-73
2023/06/01 03:01:41;;;;;;;4.27;3.00;;;;;;;12.84;100.00;100322.78;4990247;28;20702;-74
2023/06/01 03:04:07;;;;;;;5.27;2.63;;;;;;;12.79;100.00;100317.03;5010720;28;20237;-74
2023/06/01 03:06:37;;;;;;;4.93;2.87;;;;;;;12.74;100.00;100323.31;5010458;28;20203;-74
2023/06/01 03:09:02;;;;;;;3.33;2.47;;;;;;;12.77;100.00;100317.16;5013183;28;20296;-74
2023/06/01 03:11:28;;;;;;;3.67;2.70;;;;;;;12.80;100.00;100323.88;5015288;28;20230;-73
2023/06/01 03:13:53;;;;;;;4.87;2.67;;;;;;;12.73;100.00;100329.41;5018782;28;20183;-74
2023/06/01 03:16:18;;;;;;;4.50;2.97;;;;;;;12.72;100.00;100325.16;5013893;28;20275;-74
2023/06/01 03:18:43;;;;;;;7.17;3.17;;;;;;;12.73;100.00;100323.41;5012872;28;20249;-74
2023/06/01 03:21:09;;;;;;;6.10;2.80;;;;;;;12.72;100.00;100321.75;5012921;28;20753;-74
2023/06/01 03:23:34;;;;;;;3.67;2.60;;;;;;;12.68;100.00;100325.44;5020568;28;20240;-74
2023/06/01 03:25:59;;;;;;;5.93;2.60;;;;;;;12.74;100.00;100325.09;5013939;28;20189;-74
2023/06/01 03:28:25;;;;;;;4.50;2.80;;;;;;;12.65;100.00;100325.63;5013344;28;20278;-74
2023/06/01 03:30:51;;;;;;;4.27;3.10;;;;;;;12.67;100.00;100323.78;4971055;28;20230;-73
2023/06/01 03:33:16;;;;;;;12.57;3.70;;;;;;;12.76;100.00;100325.81;5014017;28;20276;-74
2023/06/01 03:35:44;;;;;;;7.97;2.73;;;;;;;12.83;100.00;100324.53;5013883;28;20187;-74
2023/06/01 03:38:09;;;;;;;3.10;2.40;;;;;;;12.79;100.00;100328.22;5012391;28;20174;-74
2023/06/01 03:40:34;;;;;;;5.63;2.97;;;;;;;12.69;100.00;100322.78;5008238;28;20233;-74
2023/06/01 03:43:00;;;;;;;4.27;2.93;;;;;;;12.73;100.00;100326.81;5025268;28;20696;-75
2023/06/01 03:45:26;;;;;;;4.93;3.07;;;;;;;12.81;100.00;100323.78;5013713;28;20190;-73
2023/06/01 03:47:51;;;;;;;8.80;3.10;;;;;;;12.77;100.00;100326.66;5013804;28;20307;-75
2023/06/01 03:50:16;;;;;;;5.40;2.97;;;;;;;12.75;100.00;100329.31;5004595;28;20187;-74
2023/06/01 03:52:41;;;;;;;4.53;2.73;;;;;;;12.82;100.00;100327.19;5012444;28;20182;-75
2023/06/01 03:55:13;;;;;;;6.97;3.10;;;;;;;12.81;100.00;100330.69;5013744;28;20682;-75
2023/06/01 03:57:38;;;;;;;5.77;2.77;;;;;;;12.84;100.00;100328.75;5013845;28;20167;-74
2023/06/01 04:00:17;;;;;;;5.03;2.90;;;;;;;12.90;100.00;100328.41;5003781;28;20720;-74
2023/06/01 04:02:48;;;;;;;6.00;3.27;;;;;;;12.93;100.00;100335.13;5015275;28;20187;-75
2023/06/01 04:05:16;;;;;;;4.97;3.80;;;;;;;12.94;100.00;100335.94;5011587;28;20186;-76
2023/06/01 04:07:42;;;;;;;6.63;3.50;;;;;;;13.00;100.00;100336.41;5012520;28;20221;-74
2023/06/01 04:10:08;;;;;;;5.77;2.80;;;;;;;13.07;100.00;100335.13;5003963;28;20203;-75
2023/06/01 04:12:33;;;;;;;6.50;3.30;;;;;;;13.08;100.00;100344.53;5011995;28;20366;-75
2023/06/01 04:14:58;;;;;;;5.40;3.60;;;;;;;13.14;100.00;100338.13;5012893;28;20550;-72
2023/06/01 04:17:24;;;;;;;5.03;3.30;;;;;;;13.26;100.00;100346.06;5013429;28;20185;-75
2023/06/01 04:19:49;;;;;;;5.93;3.73;;;;;;;13.28;100.00;100339.88;5012616;28;20226;-75
2023/06/01 04:22:15;;;;;;;5.60;3.03;;;;;;;13.31;100.00;100338.84;5018629;28;20222;-75
2023/06/01 04:24:40;;;;;;;4.83;3.10;;;;;;;13.41;100.00;100339.97;5013774;28;20186;-74
2023/06/01 04:27:07;;;;;;;4.60;3.10;;;;;;;13.42;100.00;100345.97;5013165;28;20689;-75
2023/06/01 04:29:33;;;;;;;5.43;3.00;;;;;;;13.51;100.00;100345.41;5001601;28;20187;-75
2023/06/01 04:31:58;;;;;;;5.20;3.13;;;;;;;13.60;100.00;100349.16;5015022;28;20209;-75
2023/06/01 04:34:24;;;;;;;4.33;3.07;;;;;;;13.66;100.00;100356.53;5013428;28;20187;-75
2023/06/01 04:36:51;;;;;;;5.40;2.80;;;;;;;13.68;100.00;100360.66;5012611;28;20221;-75
2023/06/01 04:39:16;;;;;;;4.03;3.10;;;;;;;13.79;100.00;100361.72;5011878;28;20203;-74
2023/06/01 04:41:41;;;;;;;8.37;2.87;;;;;;;13.94;100.00;100353.00;5015157;28;20611;-75
2023/06/01 04:44:07;;;;;;;3.53;2.90;;;;;;;14.06;100.00;100348.78;5015605;28;20194;-74
2023/06/01 04:46:32;;;;;;;5.97;2.80;;;;;;;14.20;100.00;100348.72;5011990;28;20572;-74
2023/06/01 04:48:59;;;;;;;4.17;2.70;;;;;;;14.33;100.00;100359.06;5011770;28;20214;-72
2023/06/01 04:51:26;;;;;;;4.60;2.70;;;;;;;14.48;100.00;100351.22;5019867;28;20323;-75
2023/06/01 04:53:52;;;;;;;6.17;3.07;;;;;;;14.65;100.00;100348.34;5027653;28;20237;-72
2023/06/01 04:56:19;;;;;;;6.33;2.63;;;;;;;14.81;100.00;100355.91;5026267;28;20276;-73
2023/06/01 04:58:47;;;;;;;3.63;3.13;;;;;;;14.97;100.00;100360.03;5011257;28;20569;-72
2023/06/01 05:01:15;;;;;;;9.37;3.13;;;;;;;15.16;100.00;100352.63;4996740;28;20218;-62
2023/06/01 05:03:44;;;;;;;5.17;3.03;;;;;;;15.35;100.00;100348.75;5002753;28;20187;-62
2023/06/01 05:06:11;;;;;;;5.60;2.90;;;;;;;15.59;100.00;100356.56;5021685;28;20185;-62
2023/06/01 05:08:37;;;;;;;4.47;2.70;;;;;;;15.78;100.00;100350.06;5012417;28;20241;-62
2023/06/01 05:11:03;;;;;;;5.43;3.00;;;;;;;15.92;100.00;100349.06;5004021;28;20234;-62
2023/06/01 05:13:28;;;;;;;3.80;2.60;;;;;;;16.05;100.00;100347.25;5019716;28;20567;-62
2023/06/01 05:15:53;;;;;;;9.60;2.70;;;;;;;16.31;100.00;100349.69;5011498;28;20174;-61
2023/06/01 05:18:18;;;;;;;5.37;2.50;;;;;;;16.58;100.00;100348.53;5012090;28;20241;-61
2023/06/01 05:20:44;;;;;;;8.70;2.80;;;;;;;16.73;100.00;100342.16;5007186;28;20221;-61
2023/06/01 05:23:09;;;;;;;6.93;2.37;;;;;;;16.68;100.00;100357.25;5022265;28;20182;-61
2023/06/01 05:25:34;;;;;;;6.50;2.67;;;;;;;16.68;100.00;100344.25;5011515;28;20205;-62
2023/06/01 05:28:00;;;;;;;9.57;2.77;;;;;;;16.74;100.00;100349.00;5011867;28;20183;-62
2023/06/01 05:30:25;;;;;;;8.57;2.90;;;;;;;16.80;100.00;100345.09;5004432;28;20226;-65
2023/06/01 05:32:50;;;;;;;3.10;2.53;;;;;;;17.05;100.00;100348.44;5024216;28;20256;-62
2023/06/01 05:35:16;;;;;;;9.07;2.77;;;;;;;17.10;100.00;100347.16;5010447;28;20201;-62
2023/06/01 05:37:41;;;;;;;5.57;2.57;;;;;;;17.24;100.00;100346.06;5012075;28;20193;-62
2023/06/01 05:40:08;;;;;;;4.37;2.70;;;;;;;17.22;100.00;100342.75;5001780;28;20277;-62
2023/06/01 05:42:34;;;;;;;9.37;3.00;;;;;;;17.40;100.00;100345.66;5015420;28;20198;-62
2023/06/01 05:44:59;;;;;;;7.43;2.80;;;;;;;17.66;98.35;100345.38;5010200;28;20175;-62
2023/06/01 05:47:25;;;;;;;9.00;3.03;;;;;;;18.04;97.87;100353.63;5011381;28;20182;-63
2023/06/01 05:49:50;;;;;;;4.67;2.80;;;;;;;18.35;98.02;100343.28;5011914;28;20183;-63
2023/06/01 05:52:16;;;;;;;6.57;2.70;;;;;;;18.59;93.64;100342.97;5016754;28;20693;-63
2023/06/01 05:54:42;;;;;;;6.17;2.70;;;;;;;18.58;91.73;100351.78;5011502;28;20321;-63
2023/06/01 05:57:07;;;;;;;6.57;2.60;;;;;;;18.94;92.26;100348.78;5009970;28;20178;-62
2023/06/01 05:59:32;;;;;;;7.17;3.10;;;;;;;19.09;90.75;100357.91;5011392;28;20190;-63
2023/06/01 06:01:58;;;;;;;6.70;3.47;;;;;;;19.23;90.15;100361.09;5003560;28;20693;-63
2023/06/01 06:04:23;;;;;;;4.97;2.73;;;;;;;19.59;85.62;100364.03;5011402;28;20209;-62
2023/06/01 06:06:48;;;;;;;8.40;2.57;;;;;;;19.92;84.67;100362.84;5011239;28;20608;-63
2023/06/01 06:09:15;;;;;;;4.53;2.90;;;;;;;20.10;77.87;100369.97;5010357;28;20249;-63
2023/06/01 06:11:40;;;;;;;4.30;2.83;;;;;;;20.34;75.19;100364.28;5002902;28;20234;-65
2023/06/01 06:14:05;;;;;;;6.37;2.80;;;;;;;20.76;75.55;100357.84;5013777;28;20221;-65
2023/06/01 06:16:31;;;;;;;4.70;3.00;;;;;;;21.42;70.91;100353.38;5010824;28;20185;-64
2023/06/01 06:18:56;;;;;;;7.33;3.10;;;;;;;21.88;62.84;100359.41;5011086;28;20206;-64
2023/06/01 06:21:21;;;;;;;8.43;2.73;;;;;;;22.56;56.06;100354.47;5011490;28;20225;-64
2023/06/01 06:23:47;;;;;;;5.40;2.70;;;;;;;23.76;49.23;100354.31;5016470;28;20186;-63
2023/06/01 06:26:13;;;;;;;6.97;3.13;;;;;;;24.31;47.90;100368.63;5009480;28;20178;-63
2023/06/01 06:28:38;;;;;;;9.02;2.80;;;;;;;26.10;41.49;100360.13;5008431;28;20237;-63
2023/06/01 06:31:03;;;;;;;5.63;3.28;;;;;;;26.55;39.94;100368.88;4998935;28;20222;-63
2023/06/01 06:33:29;;;;;;;6.88;2.70;;;;;;;27.13;38.55;100357.63;5018821;28;20183;-64
2023/06/01 06:35:54;;;;;;;8.07;2.63;;;;;;;27.69;37.04;100364.91;5010685;28;20195;-64
2023/06/01 06:38:19;;;;;;;4.10;2.35;;;;;;;27.29;37.47;100359.22;5010929;28;20709;-63
2023/06/01 06:40:45;;;;;;;6.57;2.83;;;;;;;27.97;35.56;100368.59;5002810;28;20241;-63
2023/06/01 06:43:10;;;;;;;5.75;2.47;;;;;;;28.64;34.49;100376.97;5024150;28;20753;-63
2023/06/01 06:45:35;;;;;;;5.25;2.25;;;;;;;27.75;35.11;100373.06;5012973;28;20186;-65
2023/06/01 06:48:00;;;;;;;11.85;2.13;;;;;;;28.01;33.66;100375.94;5014739;28;20187;-64
2023/06/01 06:50:26;;;;;;;8.95;3.08;;;;;;;27.27;35.32;100371.00;5006613;28;20265;-65
2023/06/01 06:52:51;;;;;;;3.58;1.80;;;;;;;26.48;35.21;100375.06;5018877;28;20182;-61
2023/06/01 06:55:17;;;;;;;3.53;2.20;;;;;;;27.44;34.53;100379.50;5014871;28;20351;-60
2023/06/01 06:57:42;;;;;;;4.97;2.35;;;;;;;28.30;33.11;100374.13;5014979;28;20190;-60
2023/06/01 07:00:08;;;;;;;10.35;2.53;;;;;;;29.29;31.89;100384.59;4994211;28;20206;-60
2023/06/01 07:02:34;;;;;;;4.38;2.28;;;;;;;30.03;31.17;100382.00;4997972;28;20175;-59
2023/06/01 07:04:59;;;;;;;4.85;2.20;;;;;;;29.68;30.54;100379.56;5013410;28;20215;-60
2023/06/01 07:07:26;;;;;;;3.03;1.90;;;;;;;29.21;31.09;100382.94;5014687;28;20187;-59
2023/06/01 07:09:52;;;;;;;5.78;2.22;;;;;;;28.72;32.12;100387.41;5007114;28;20709;-62
2023/06/01 07:12:18;;;;;;;4.78;2.70;;;;;;;28.12;33.21;100379.94;5000818;28;20229;-59
2023/06/01 07:14:43;;;;;;;6.00;2.08;;;;;;;28.03;33.51;100379.22;5014423;28;20201;-60
2023/06/01 07:17:09;;;;;;;4.95;2.00;;;;;;;28.63;32.10;100385.94;5009479;28;20230;-60
2023/06/01 07:19:34;;;;;;;3.65;2.00;;;;;;;29.57;31.10;100370.38;5014515;28;20202;-59
2023/06/01 07:22:00;;;;;;;6.30;2.22;;;;;;;30.07;31.23;100373.44;5019103;28;20229;-61
2023/06/01 07:24:26;;;;;;;7.88;2.20;;;;;;;29.57;30.85;100375.66;5014739;28;20228;-61
2023/06/01 07:26:51;;;;;;;7.68;2.25;;;;;;;30.02;30.55;100378.56;5012596;28;20190;-62
2023/06/01 07:29:17;;;;;;;7.95;2.40;;;;;;;29.35;31.69;100369.72;4995624;28;20199;-61
2023/06/01 07:31:42;;;;;;;6.88;2.45;;;;;;;28.92;32.05;100371.63;4978541;28;20337;-62
2023/06/01 07:34:07;;;;;;;3.70;2.20;;;;;;;29.94;31.28;100370.81;5008437;28;20638;-61
2023/06/01 07:36:36;;;;;;;8.87;2.53;;;;;;;31.53;29.10;100373.09;4996188;28;20833;-61
2023/06/01 07:39:03;;;;;;;7.05;2.67;;;;;;;30.72;29.88;100374.53;5012915;28;20191;-60
2023/06/01 07:41:28;;;;;;;6.18;2.20;;;;;;;29.91;30.85;100373.88;5006098;28;20222;-60
2023/06/01 07:43:53;;;;;;;6.20;2.28;;;;;;;29.55;31.76;100372.41;5018400;28;20186;-60
2023/06/01 07:46:18;;;;;;;5.97;2.03;;;;;;;30.34;30.97;100368.09;5013843;28;20241;-60
2023/06/01 07:48:44;;;;;;;5.20;2.13;;;;;;;30.46;30.06;100378.88;5014450;28;20191;-59
2023/06/01 07:51:09;;;;;;;5.65;2.63;;;;;;;32.35;28.47;100379.38;5011443;28;20320;-60
2023/06/01 07:53:35;;;;;;;6.22;2.25;;;;;;;31.73;28.38;100373.97;5020597;28;20297;-61
2023/06/01 07:56:01;;;;;;;4.32;2.05;;;;;;;30.56;28.88;100374.00;5012021;28;20194;-63
2023/06/01 07:58:26;;;;;;;4.78;1.92;;;;;;;30.99;29.22;100383.19;5013881;28;20269;-61
2023/06/01 08:00:51;;;;;;;9.05;2.10;;;;;;;29.87;29.77;100370.78;4997773;28;20222;-62
2023/06/01 08:03:17;;;;;;;4.63;2.30;;;;;;;29.81;30.46;100374.25;5023351;28;20183;-59
2023/06/01 08:05:42;;;;;;;6.32;2.20;;;;;;;29.05;31.30;100370.03;5013274;28;20187;-61
2023/06/01 08:08:08;;;;;;;4.97;2.08;;;;;;;29.46;31.61;100358.56;5013795;28;20175;-60
2023/06/01 08:10:34;;;;;;;9.63;2.17;;;;;;;29.58;30.76;100359.59;5004937;28;20335;-60
2023/06/01 08:12:59;;;;;;;6.00;1.83;;;;;;;29.19;31.81;100365.56;5023873;28;20682;-60
2023/06/01 08:15:28;;;;;;;7.05;2.03;;;;;;;30.43;30.47;100358.06;5013212;28;20270;-60
2023/06/01 08:17:54;;;;;;;4.13;2.20;;;;;;;30.59;29.55;100368.25;5013521;28;20178;-59
2023/06/01 08:20:21;;;;;;;7.28;2.13;;;;;;;30.21;29.79;100354.88;5003815;28;20206;-59
2023/06/01 08:22:47;;;;;;;5.15;2.17;;;;;;;31.61;29.28;100355.25;5022651;28;20234;-60
2023/06/01 08:25:14;;;;;;;8.07;2.22;;;;;;;31.45;28.64;100357.41;5012568;28;20187;-60
2023/06/01 08:27:40;;;;;;;4.90;2.50;;;;;;;30.91;29.08;100355.06;5003845;28;20689;-60
2023/06/01 08:30:06;;;;;;;5.28;2.28;;;;;;;30.89;29.96;100350.97;4998196;28;20190;-60
2023/06/01 08:32:32;;;;;;;4.68;1.77;;;;;;;31.47;28.99;100358.00;5011974;28;20182;-61
2023/06/01 08:34:57;;;;;;;2.92;1.83;;;;;;;31.38;28.70;100348.66;5008215;28;20185;-61
2023/06/01 08:37:22;;;;;;;5.80;1.85;;;;;;;30.21;29.90;100345.06;5012996;28;20223;-60
2023/06/01 08:39:48;;;;;;;3.58;1.90;;;;;;;30.22;29.02;100345.88;5012538;28;20195;-61
2023/06/01 08:42:32;;;;;;;3.67;1.85;;;;;;;30.84;30.51;100338.31;5016955;28;20222;-61
2023/06/01 08:44:58;;;;;;;4.03;2.28;;;;;;;32.92;27.78;100339.16;5024001;28;20191;-61
2023/06/01 08:47:26;;;;;;;5.68;1.92;;;;;;;33.68;26.24;100337.81;5011482;28;20197;-61
2023/06/01 08:49:52;;;;;;;4.70;2.00;;;;;;;31.87;27.86;100341.72;5012228;28;20373;-61
2023/06/01 08:52:24;;;;;;;3.83;2.03;;;;;;;32.00;28.57;100335.50;5005642;28;20236;-60
2023/06/01 08:54:50;;;;;;;5.25;2.30;;;;;;;31.74;28.71;100325.91;5006895;28;20194;-61
2023/06/01 08:57:15;;;;;;;4.78;1.98;;;;;;;31.67;28.47;100331.28;5011420;28;20645;-60
2023/06/01 08:59:41;;;;;;;4.40;2.00;;;;;;;32.70;28.00;100333.50;5012321;28;20202;-61
2023/06/01 09:02:07;;;;;;;4.57;2.15;;;;;;;33.33;26.34;100330.59;5015951;28;20248;-61
2023/06/01 09:04:35;;;;;;;4.30;2.47;;;;;;;33.36;26.04;100328.28;5011828;28;20214;-62
2023/06/01 09:07:02;;;;;;;5.45;2.45;;;;;;;32.09;27.12;100330.69;5010057;28;20179;-60
2023/06/01 09:09:27;;;;;;;7.40;2.25;;;;;;;32.97;28.15;100328.63;5010941;28;20194;-61
2023/06/01 09:12:18;;;;;;;5.95;2.17;;;;;;;33.55;26.27;100314.84;5005202;28;20623;-60
2023/06/01 09:14:44;;;;;;;5.57;2.17;;;;;;;32.44;27.14;100327.44;5000170;28;20194;-59
2023/06/01 09:17:15;;;;;;;6.28;2.30;;;;;;;32.76;26.50;100316.63;5001091;28;20191;-59
2023/06/01 09:19:44;;;;;;;4.25;2.00;;;;;;;32.91;26.00;100312.72;5011723;28;20234;-60
2023/06/01 09:22:11;;;;;;;5.32;2.00;;;;;;;31.06;28.08;100319.41;5003142;28;20253;-59
2023/06/01 09:24:36;;;;;;;3.70;1.65;;;;;;;29.61;29.42;100306.16;5010624;28;20191;-59
2023/06/01 09:27:02;;;;;;;3.13;2.17;;;;;;;32.64;27.79;100310.41;5009512;28;20198;-60
2023/06/01 09:29:28;;;;;;;7.35;2.30;;;;;;;33.73;25.27;100306.75;5008860;28;20189;-59
2023/06/01 09:31:54;;;;;;;4.43;2.28;;;;;;;34.15;24.15;100305.81;5015878;28;20217;-59
2023/06/01 09:34:21;;;;;;;7.88;3.15;;;;;;;32.74;25.09;100302.69;5010492;28;20175;-58
2023/06/01 09:36:53;;;;;;;9.98;3.17;;;;;;;33.49;23.74;100303.25;5010239;28;20241;-60
2023/06/01 09:39:22;;;;;;;8.13;2.30;;;;;;;32.82;23.84;100306.91;5010449;28;20217;-59
2023/06/01 09:41:49;;;;;;;8.93;2.10;;;;;;;33.82;22.17;100309.06;4998920;28;20219;-58
2023/06/01 09:44:26;;;;;;;4.43;2.10;;;;;;;33.07;22.04;100306.78;5001555;28;20178;-59
2023/06/01 09:46:54;;;;;;;2.55;1.83;;;;;;;32.49;23.15;100308.16;5009882;28;20194;-61
2023/06/01 09:49:27;;;;;;;4.53;1.95;;;;;;;33.09;22.96;100304.66;5012105;28;20187;-63
2023/06/01 09:52:14;;;;;;;5.68;1.95;;;;;;;33.82;22.00;100304.56;5000012;28;20286;-75
2023/06/01 09:54:48;;;;;;;6.20;2.10;;;;;;;32.98;23.71;100300.97;5008529;28;20189;-59
2023/06/01 09:57:21;;;;;;;5.75;3.47;;;;;;;33.91;22.48;100297.84;5008591;28;20178;-61
2023/06/01 09:59:47;;;;;;;3.80;2.25;;;;;;;34.30;22.06;100301.78;5008349;28;20206;-59
2023/06/01 10:02:16;;;;;;;9.30;1.80;;;;;;;33.21;22.09;100301.25;5013592;28;20233;-60
2023/06/01 10:04:48;;;;;;;6.07;2.10;;;;;;;32.31;23.95;100293.00;4999821;28;20179;-59
2023/06/01 10:07:14;;;;;;;6.63;1.92;;;;;;;32.53;23.59;100290.69;5007874;28;20277;-59
2023/06/01 10:09:42;;;;;;;3.10;2.28;;;;;;;32.51;24.23;100290.09;5010147;28;20174;-60
2023/06/01 10:12:08;;;;;;;4.65;2.10;;;;;;;31.90;23.81;100281.97;5002636;28;20244;-60
2023/06/01 10:14:37;;;;;;;3.90;3.05;;;;;;;33.35;22.69;100285.88;5011627;28;20202;-59
2023/06/01 10:17:03;;;;;;;3.15;1.80;;;;;;;32.93;22.58;100286.69;5011823;28;20194;-59
2023/06/01 10:19:30;;;;;;;3.60;1.80;;;;;;;32.69;22.03;100294.56;5015138;28;20213;-59
2023/06/01 10:21:57;;;;;;;4.00;1.88;;;;;;;33.25;21.18;100281.06;5007104;28;20253;-60
2023/06/01 10:24:23;;;;;;;3.47;1.65;;;;;;;34.78;20.58;100281.88;5014120;28;20230;-60
2023/06/01 10:27:02;;;;;;;4.05;1.88;;;;;;;34.20;19.77;100275.72;5015457;28;20634;-60
2023/06/01 10:29:30;;;;;;;4.78;2.03;;;;;;;33.40;20.99;100278.00;5004875;28;20183;-60
2023/06/01 10:31:57;;;;;;;3.60;1.65;;;;;;;34.78;20.21;100278.41;5004230;28;20229;-63
2023/06/01 10:34:40;;;;;;;3.38;1.75;;;;;;;35.53;19.06;100279.13;5030475;28;20207;-61
2023/06/01 10:37:05;;;;;;;5.60;1.75;;;;;;;35.89;19.85;100276.97;5026374;28;20182;-60
2023/06/01 10:39:32;;;;;;;5.25;1.63;;;;;;;33.11;21.23;100259.16;5015394;28;20388;-61
2023/06/01 10:42:19;;;;;;;3.08;1.83;;;;;;;32.01;23.54;100270.59;5006699;28;20751;-60
2023/06/01 10:44:45;;;;;;;4.50;1.83;;;;;;;29.72;27.00;100267.63;5014685;28;20668;-60
2023/06/01 10:47:11;;;;;;;6.53;2.28;;;;;;;28.88;28.69;100253.91;5013579;28;20179;-60
2023/06/01 10:49:48;;;;;;;5.67;1.93;;;;;;;27.90;30.73;100256.69;5014811;28;20660;-61
2023/06/01 10:52:34;;;;;;;6.90;2.50;;;;;;;26.95;31.35;100244.53;5020377;28;20472;-60
2023/06/01 10:55:13;;;;;;;4.07;1.88;;;;;;;27.07;32.12;100244.88;5022642;28;20291;-61
2023/06/01 10:57:45;;;;;;;4.55;2.20;;;;;;;27.31;31.39;100242.84;5009577;28;20196;-60
2023/06/01 11:00:19;;;;;;;4.18;1.77;;;;;;;26.87;31.53;100242.84;4993510;28;20252;-61
2023/06/01 11:03:04;;;;;;;7.05;1.88;;;;;;;26.65;32.96;100234.06;4995733;28;21554;-59
2023/06/01 11:05:41;;;;;;;7.10;2.00;;;;;;;27.03;34.99;100227.78;5007666;28;20178;-60
2023/06/01 11:08:19;;;;;;;7.10;2.30;;;;;;;27.60;33.15;100233.13;5028741;28;20190;-61
2023/06/01 11:10:56;;;;;;;4.60;2.35;;;;;;;27.66;31.79;100227.06;4997029;28;20313;-59
2023/06/01 11:13:30;;;;;;;5.10;2.95;;;;;;;27.29;32.41;100229.00;5012294;28;20756;-59
2023/06/01 11:16:04;;;;;;;5.70;1.67;;;;;;;27.05;32.86;100221.31;5003436;28;20262;-58
2023/06/01 11:19:00;;;;;;;5.00;1.95;;;;;;;26.97;33.06;100223.25;5005517;28;20241;-66
2023/06/01 11:21:37;;;;;;;4.13;1.92;;;;;;;26.40;34.19;100212.47;4995284;28;20315;-57
2023/06/01 11:24:16;;;;;;;4.55;2.40;;;;;;;26.47;33.78;100213.38;5011722;28;20582;-57